Time;durP1;ratioP1;P1;durP2;ratioP2;P2;SDS_P1;SDS_P2;PMS_P1;PMS_P2;Temp;Humidity;BMP_temperature;BMP_pressure;BME280_temperature;BME280_humidity;BME280_pressure;Samples;Min_cycle;Max_cycle;Signal;HPM_P1;HPM_P2
2022/12/31 00:01:27;;;;;;;19.67;17.97;;;;;;;21.62;35.68;96032.38;6199311;28;103306;-69
2022/12/31 00:04:30;;;;;;;19.20;17.43;;;;;;;21.70;35.52;96047.00;6209208;28;103849;-70
2022/12/31 00:07:36;;;;;;;19.13;17.47;;;;;;;21.70;35.72;96047.00;6195649;28;102866;-70
2022/12/31 00:10:40;;;;;;;18.50;16.90;;;;;;;21.66;35.74;96037.94;6199290;28;102810;-69
2022/12/31 00:13:45;;;;;;;18.00;16.50;;;;;;;21.52;35.71;96022.63;6209022;28;105234;-70
2022/12/31 00:16:48;;;;;;;18.53;17.03;;;;;;;21.66;35.63;96043.28;6209073;28;103492;-70
2022/12/31 00:19:51;;;;;;;18.53;17.00;;;;;;;21.69;35.44;96054.19;6208670;28;104200;-70
2022/12/31 00:22:55;;;;;;;18.80;17.10;;;;;;;21.69;35.70;96048.88;6198856;28;104264;-69
2022/12/31 00:26:03;;;;;;;18.23;16.73;;;;;;;21.69;35.69;96058.72;6209818;28;103665;-70
2022/12/31 00:29:06;;;;;;;18.53;16.93;;;;;;;21.66;35.34;96048.59;6201645;28;103443;-70
2022/12/31 00:32:09;;;;;;;19.30;17.60;;;;;;;21.68;35.58;96070.44;6209147;28;103157;-70
2022/12/31 00:35:12;;;;;;;18.60;17.00;;;;;;;21.68;35.52;96065.91;6185001;28;103470;-70
2022/12/31 00:38:16;;;;;;;18.40;16.80;;;;;;;21.66;35.41;96069.91;6209118;28;102833;-70
2022/12/31 00:41:21;;;;;;;18.67;16.97;;;;;;;21.67;35.29;96063.50;6209273;28;103027;-70
2022/12/31 00:44:24;;;;;;;20.00;18.30;;;;;;;21.67;35.53;96063.50;6204105;28;103215;-71
2022/12/31 00:47:27;;;;;;;18.07;16.57;;;;;;;21.68;35.53;96078.44;6202199;28;103205;-70
2022/12/31 00:50:30;;;;;;;19.47;17.87;;;;;;;21.66;35.62;96081.34;6196749;28;103165;-70
2022/12/31 00:53:35;;;;;;;18.20;16.70;;;;;;;21.68;35.25;96078.44;6208859;28;103366;-69
2022/12/31 00:56:38;;;;;;;18.83;17.23;;;;;;;21.68;35.15;96081.09;6197736;28;103283;-72
2022/12/31 00:59:41;;;;;;;19.40;17.80;;;;;;;21.67;35.25;96088.28;6209341;28;103716;-71
2022/12/31 01:02:44;;;;;;;17.07;15.67;;;;;;;21.61;35.56;96083.28;6208880;28;103188;-70
2022/12/31 01:05:49;;;;;;;19.40;17.80;;;;;;;21.66;35.43;96096.53;6206753;28;103135;-71
2022/12/31 01:08:55;;;;;;;18.80;17.17;;;;;;;21.59;35.36;96088.88;6197918;28;103520;-70
2022/12/31 01:11:58;;;;;;;18.80;17.10;;;;;;;21.65;35.39;96093.09;6208720;28;102935;-71
2022/12/31 01:15:01;;;;;;;18.50;17.00;;;;;;;21.66;35.68;96096.53;6207505;28;102799;-71
2022/12/31 01:18:06;;;;;;;18.50;17.10;;;;;;;21.65;35.31;96106.41;6207567;28;103336;-70
2022/12/31 01:21:11;;;;;;;19.77;18.17;;;;;;;21.63;35.11;96095.22;6201462;28;104947;-70
2022/12/31 01:24:16;;;;;;;18.53;17.03;;;;;;;21.65;35.08;96094.97;6208213;28;103478;-70
2022/12/31 01:27:19;;;;;;;19.30;17.77;;;;;;;21.55;34.92;96082.53;6208053;28;103066;-70
2022/12/31 01:30:22;;;;;;;18.77;17.10;;;;;;;21.64;35.40;96106.69;6186942;28;104014;-70
2022/12/31 01:33:25;;;;;;;19.37;17.67;;;;;;;21.62;35.07;96100.84;6207729;28;103235;-70
2022/12/31 01:36:31;;;;;;;19.30;17.63;;;;;;;21.64;35.45;96099.50;6207967;28;102725;-70
2022/12/31 01:39:36;;;;;;;18.50;16.90;;;;;;;21.64;35.04;96098.69;6207751;28;103096;-70
2022/12/31 01:42:39;;;;;;;18.90;17.27;;;;;;;21.61;35.19;96099.25;6197897;28;103403;-70
2022/12/31 01:45:43;;;;;;;17.17;15.67;;;;;;;21.63;34.93;96105.88;6206859;28;103212;-70
2022/12/31 01:48:49;;;;;;;18.67;17.07;;;;;;;21.62;35.20;96106.97;6208959;28;102820;-70
2022/12/31 01:51:57;;;;;;;19.30;17.70;;;;;;;21.58;35.29;96097.16;6208316;28;103073;-70
2022/12/31 01:55:14;;;;;;;18.13;16.60;;;;;;;21.62;34.93;96111.50;6196350;28;103410;-70
2022/12/31 01:58:22;;;;;;;18.50;17.00;;;;;;;21.63;35.39;96105.09;6198615;28;103278;-70
2022/12/31 02:01:28;;;;;;;18.70;17.10;;;;;;;21.62;34.90;96114.16;6207727;28;103146;-70
2022/12/31 02:04:31;;;;;;;18.60;17.00;;;;;;;21.56;35.08;96093.97;6197041;28;103054;-70
2022/12/31 02:07:34;;;;;;;18.53;16.93;;;;;;;21.61;35.07;96104.56;6207601;28;103359;-70
2022/12/31 02:10:39;;;;;;;17.90;16.30;;;;;;;21.60;35.08;96111.78;6207945;28;102964;-71
2022/12/31 02:13:42;;;;;;;19.33;17.47;;;;;;;21.62;35.18;96116.81;6207908;28;105125;-70
2022/12/31 02:16:52;;;;;;;18.17;16.67;;;;;;;21.59;35.12;96109.38;6196874;28;103349;-70
2022/12/31 02:20:31;;;;;;;16.90;15.40;;;;;;;21.61;35.19;96104.56;6208560;28;103169;-71
2022/12/31 02:24:18;;;;;;;17.03;15.47;;;;;;;21.61;34.78;96115.22;6204018;28;103257;-70
2022/12/31 02:27:37;;;;;;;17.30;15.73;;;;;;;21.57;35.19;96109.66;6110128;28;104774;-70
2022/12/31 02:30:45;;;;;;;17.27;15.77;;;;;;;21.60;34.94;96114.44;6207089;28;103251;-70
2022/12/31 02:33:54;;;;;;;16.53;15.17;;;;;;;21.57;34.58;96116.88;6209082;28;103250;-70
2022/12/31 02:36:59;;;;;;;15.60;14.30;;;;;;;21.57;35.05;96116.88;6212004;28;102958;-70
2022/12/31 02:40:03;;;;;;;15.60;14.30;;;;;;;21.52;34.85;96113.16;6201728;28;103232;-70
2022/12/31 02:43:06;;;;;;;16.10;14.80;;;;;;;21.58;35.05;96127.25;6212444;28;102703;-71
2022/12/31 02:46:20;;;;;;;15.87;14.43;;;;;;;21.59;34.91;96134.16;6204421;28;103092;-70
2022/12/31 02:49:27;;;;;;;15.93;14.67;;;;;;;21.59;35.01;96133.38;6201969;28;106957;-70
2022/12/31 02:52:42;;;;;;;16.07;14.67;;;;;;;21.58;34.93;96129.09;6205076;28;103147;-70
2022/12/31 02:55:53;;;;;;;16.13;14.73;;;;;;;21.57;35.18;96135.50;6211445;28;103301;-70
2022/12/31 03:02:30;;;;;;;15.60;14.30;;;;;;;21.58;35.04;96137.09;6200131;28;103210;-70
2022/12/31 03:05:37;;;;;;;13.57;12.47;;;;;;;21.53;34.54;96127.28;6206545;28;102989;-70
2022/12/31 03:15:23;;;;;;;14.70;13.50;;;;;;;21.55;34.88;96125.13;6189686;28;103454;-70
2022/12/31 03:22:26;;;;;;;13.90;12.70;;;;;;;21.55;34.80;96117.13;6211381;28;103337;-70
2022/12/31 03:25:34;;;;;;;13.40;12.30;;;;;;;21.58;35.05;96121.13;6199421;28;103739;-71
2022/12/31 03:28:39;;;;;;;13.73;12.63;;;;;;;21.56;34.85;96118.72;6206813;28;103087;-70
2022/12/31 03:31:43;;;;;;;13.13;12.13;;;;;;;21.58;34.89;96129.09;6203061;28;103404;-70
2022/12/31 03:34:47;;;;;;;12.50;11.50;;;;;;;21.56;34.61;96128.59;6205582;28;103025;-70
2022/12/31 03:37:51;;;;;;;13.13;12.07;;;;;;;21.55;34.70;96119.81;6205012;28;103108;-70
2022/12/31 03:40:54;;;;;;;12.90;11.90;;;;;;;21.56;34.49;96120.59;6203711;28;104480;-70
2022/12/31 03:43:57;;;;;;;12.97;11.77;;;;;;;21.56;34.54;96124.06;6195825;28;104298;-70
2022/12/31 03:47:00;;;;;;;12.40;11.40;;;;;;;21.53;34.90;96116.63;6199113;28;105543;-70
2022/12/31 03:50:07;;;;;;;12.00;11.10;;;;;;;21.56;34.77;96125.94;6209977;28;103046;-70
2022/12/31 03:53:10;;;;;;;11.03;10.13;;;;;;;21.56;34.81;96128.59;6206725;28;103266;-69
2022/12/31 03:56:13;;;;;;;12.17;11.17;;;;;;;21.56;34.39;96128.59;6209227;28;103197;-70
2022/12/31 03:59:16;;;;;;;11.40;10.50;;;;;;;21.55;34.79;96135.78;6198731;28;103585;-71
2022/12/31 04:02:19;;;;;;;11.83;10.83;;;;;;;21.55;34.95;96137.66;6195898;28;104670;-70
2022/12/31 04:05:32;;;;;;;11.43;10.50;;;;;;;21.57;34.83;96143.50;6209516;28;103228;-70
2022/12/31 04:08:35;;;;;;;11.87;10.97;;;;;;;21.54;34.51;96133.41;6209804;28;103494;-70
2022/12/31 04:11:38;;;;;;;11.63;10.60;;;;;;;21.54;34.87;96138.72;6199664;28;103419;-70
2022/12/31 04:14:41;;;;;;;10.30;9.50;;;;;;;21.47;34.79;96123.03;6209328;28;104458;-70
2022/12/31 04:17:44;;;;;;;10.87;10.07;;;;;;;21.41;34.51;96119.59;6209475;28;103372;-70
2022/12/31 04:20:49;;;;;;;10.90;10.00;;;;;;;21.52;34.52;96139.78;6197847;28;103292;-71
2022/12/31 04:23:52;;;;;;;11.03;10.13;;;;;;;21.55;34.31;96141.13;6209931;28;102830;-71
2022/12/31 04:26:55;;;;;;;11.07;10.10;;;;;;;21.51;34.43;96138.22;6208628;28;103040;-71
2022/12/31 04:30:06;;;;;;;10.10;9.30;;;;;;;21.52;34.77;96150.44;6209688;28;103061;-71
2022/12/31 04:33:09;;;;;;;9.60;8.80;;;;;;;21.52;34.45;96153.13;6199229;28;103735;-71
2022/12/31 04:36:14;;;;;;;10.50;9.60;;;;;;;21.54;34.68;96152.84;6209078;28;104279;-72
2022/12/31 04:39:17;;;;;;;9.93;9.13;;;;;;;21.50;34.58;96157.88;6209280;28;104236;-73
2022/12/31 04:42:20;;;;;;;11.17;10.27;;;;;;;21.45;34.79;96149.94;6209900;28;103236;-73
2022/12/31 04:45:23;;;;;;;10.10;9.40;;;;;;;21.51;34.54;96164.84;6198179;28;103337;-72
2022/12/31 04:48:26;;;;;;;9.83;9.03;;;;;;;21.39;34.49;96153.72;6208840;28;103353;-73
2022/12/31 04:51:31;;;;;;;10.13;9.33;;;;;;;21.52;34.66;96170.97;6208593;28;103241;-73
2022/12/31 04:54:34;;;;;;;10.40;9.57;;;;;;;21.51;34.54;96170.16;6203905;28;104867;-72
2022/12/31 04:57:37;;;;;;;10.37;9.60;;;;;;;21.51;34.26;96180.81;6203235;28;103824;-72
2022/12/31 05:00:40;;;;;;;11.53;10.53;;;;;;;21.49;34.18;96182.94;6209341;28;103606;-71
2022/12/31 05:03:43;;;;;;;10.67;9.87;;;;;;;21.46;34.57;96193.34;6194632;28;103238;-73
2022/12/31 05:06:48;;;;;;;10.10;9.30;;;;;;;21.47;34.34;96194.94;6197141;28;103338;-70
2022/12/31 05:09:51;;;;;;;10.70;9.90;;;;;;;21.48;34.45;96197.31;6202633;28;103208;-71
2022/12/31 05:12:54;;;;;;;10.00;9.20;;;;;;;21.48;34.18;96199.97;6208861;28;103122;-72
2022/12/31 05:15:57;;;;;;;10.60;9.80;;;;;;;21.49;34.46;96206.09;6200989;28;104084;-71
2022/12/31 05:19:00;;;;;;;11.37;10.37;;;;;;;21.48;34.23;96209.84;6197477;28;103832;-71
2022/12/31 05:25:26;;;;;;;11.27;10.27;;;;;;;21.48;34.35;96220.50;6208582;28;103621;-71
2022/12/31 05:28:29;;;;;;;11.73;10.80;;;;;;;21.47;34.04;96221.56;6204643;28;103250;-70
2022/12/31 05:31:32;;;;;;;11.47;10.47;;;;;;;21.47;34.37;96222.34;6199367;28;105555;-72
2022/12/31 05:34:35;;;;;;;11.87;10.90;;;;;;;21.46;34.19;96226.09;6207240;28;104190;-72
2022/12/31 05:37:39;;;;;;;11.57;10.67;;;;;;;21.45;34.33;96219.19;6208036;28;103449;-72
2022/12/31 05:40:42;;;;;;;11.23;10.30;;;;;;;21.46;33.97;96238.63;6198299;28;103295;-72
2022/12/31 05:43:45;;;;;;;11.57;10.67;;;;;;;21.45;33.98;96227.16;6208456;28;103215;-72
2022/12/31 05:46:49;;;;;;;11.33;10.43;;;;;;;21.46;34.04;96225.28;6208073;28;103238;-72
2022/12/31 05:49:52;;;;;;;12.50;11.40;;;;;;;21.44;33.85;96222.91;6207762;28;103256;-72
2022/12/31 05:52:56;;;;;;;11.90;10.80;;;;;;;21.45;33.75;96232.50;6196682;28;103525;-73
2022/12/31 05:55:59;;;;;;;11.70;10.70;;;;;;;21.45;34.22;96227.16;6207927;28;103074;-73
2022/12/31 05:59:03;;;;;;;11.43;10.53;;;;;;;21.46;34.05;96233.28;6207998;28;102991;-70
2022/12/31 06:02:06;;;;;;;11.90;11.00;;;;;;;21.44;34.13;96233.56;6207443;28;103263;-73
2022/12/31 06:05:09;;;;;;;11.23;10.23;;;;;;;21.44;33.90;96233.56;6197675;28;103673;-72
2022/12/31 06:08:14;;;;;;;12.40;11.33;;;;;;;21.45;33.85;96235.16;6206730;28;103167;-73
2022/12/31 06:11:17;;;;;;;12.80;11.80;;;;;;;21.42;34.13;96230.38;6206688;28;103191;-72
2022/12/31 06:14:20;;;;;;;11.87;10.87;;;;;;;21.45;34.21;96235.16;6203820;28;103378;-72
2022/12/31 06:17:24;;;;;;;12.43;11.43;;;;;;;21.45;33.97;96235.16;6201368;28;104015;-72
2022/12/31 06:20:27;;;;;;;10.83;10.00;;;;;;;21.43;34.01;96229.31;6206101;28;103210;-72
2022/12/31 06:23:32;;;;;;;11.40;10.50;;;;;;;21.41;34.07;96230.66;6195637;28;103246;-72
2022/12/31 06:26:35;;;;;;;12.50;11.40;;;;;;;21.45;34.04;96245.81;6196430;28;106583;-70
2022/12/31 06:29:38;;;;;;;11.10;10.20;;;;;;;21.42;34.04;96246.34;6207042;28;103202;-70
2022/12/31 06:32:41;;;;;;;11.27;10.27;;;;;;;21.44;33.94;96254.88;6202627;28;103480;-71
2022/12/31 06:35:44;;;;;;;11.23;10.33;;;;;;;21.43;33.81;96255.94;6204976;28;103314;-70
2022/12/31 06:38:49;;;;;;;10.87;10.03;;;;;;;21.46;33.80;96257.25;6198396;28;105898;-70
2022/12/31 06:41:52;;;;;;;10.27;9.43;;;;;;;21.46;34.05;96257.25;6205440;28;103185;-72
2022/12/31 06:44:55;;;;;;;10.93;10.03;;;;;;;21.42;33.95;96261.53;6202406;28;103271;-71
2022/12/31 06:47:58;;;;;;;10.47;9.60;;;;;;;21.46;33.95;96275.91;6204584;28;104297;-70
2022/12/31 06:51:05;;;;;;;10.43;9.63;;;;;;;21.44;34.14;96270.84;6185349;28;103266;-72
2022/12/31 06:54:14;;;;;;;9.93;9.13;;;;;;;21.46;34.19;96290.00;6206234;28;103238;-72
2022/12/31 06:57:17;;;;;;;10.87;9.97;;;;;;;21.40;33.96;96288.44;6207135;28;103389;-70
2022/12/31 07:00:21;;;;;;;10.70;9.80;;;;;;;21.48;34.33;96297.72;6202439;28;105081;-70
2022/12/31 07:03:32;;;;;;;10.27;9.47;;;;;;;21.54;33.81;96293.19;6203186;28;103242;-70
2022/12/31 07:06:42;;;;;;;10.17;9.17;;;;;;;21.93;33.51;96294.13;6204559;28;103438;-70
2022/12/31 07:09:55;;;;;;;9.60;8.70;;;;;;;22.18;32.99;96301.22;6207037;28;103819;-69
2022/12/31 07:13:11;;;;;;;9.80;8.90;;;;;;;22.32;33.14;96309.38;6196082;28;103639;-70
2022/12/31 07:16:25;;;;;;;11.03;9.77;;;;;;;22.29;32.94;96288.59;6200114;28;103393;-70
2022/12/31 07:19:40;;;;;;;10.07;9.27;;;;;;;22.38;32.79;96305.63;6205968;28;102857;-70
2022/12/31 07:22:44;;;;;;;11.30;10.43;;;;;;;22.44;32.64;96317.84;6207524;28;103738;-71
2022/12/31 07:26:07;;;;;;;10.73;9.67;;;;;;;22.48;32.55;96321.56;6203063;28;103813;-70
2022/12/31 07:29:18;;;;;;;10.30;9.50;;;;;;;22.33;32.67;96314.44;6207734;28;103068;-71
2022/12/31 07:32:33;;;;;;;11.87;10.77;;;;;;;22.22;33.39;96317.47;6209838;28;103026;-70
2022/12/31 07:35:48;;;;;;;11.80;10.90;;;;;;;22.19;32.92;96326.00;6199041;28;103995;-70
2022/12/31 07:38:57;;;;;;;13.17;12.00;;;;;;;22.18;33.11;96319.88;6207754;28;103309;-70
2022/12/31 07:42:09;;;;;;;13.20;12.20;;;;;;;22.21;33.11;96321.19;6204877;28;104850;-70
2022/12/31 07:45:20;;;;;;;13.70;12.50;;;;;;;22.20;33.06;96324.94;6203876;28;103178;-70
2022/12/31 07:48:27;;;;;;;14.40;13.10;;;;;;;22.20;33.11;96336.41;6199579;28;103378;-71
2022/12/31 07:51:31;;;;;;;13.60;12.60;;;;;;;22.20;33.15;96333.75;6207463;28;103012;-69
2022/12/31 07:54:34;;;;;;;13.13;12.03;;;;;;;22.20;33.26;96330.28;6208581;28;103273;-69
2022/12/31 07:57:49;;;;;;;14.07;12.87;;;;;;;22.21;33.43;96337.19;6198189;28;103093;-69
2022/12/31 08:00:55;;;;;;;14.53;13.30;;;;;;;22.16;33.21;96330.00;6207202;28;103360;-66
2022/12/31 08:04:03;;;;;;;14.20;13.00;;;;;;;22.23;33.08;96332.38;6205687;28;103115;-70
2022/12/31 08:07:16;;;;;;;16.97;15.37;;;;;;;22.20;33.09;96324.94;6211112;28;104836;-70
2022/12/31 08:10:26;;;;;;;14.63;13.43;;;;;;;22.20;33.49;96332.94;6200733;28;103445;-70
2022/12/31 08:13:31;;;;;;;14.43;13.33;;;;;;;22.16;33.17;96343.34;6211124;28;106367;-71
2022/12/31 08:16:35;;;;;;;16.57;13.93;;;;;;;22.16;33.73;96335.34;6209406;28;103941;-70
2022/12/31 08:19:38;;;;;;;14.87;13.57;;;;;;;22.09;33.06;96324.19;6207713;28;103619;-70
2022/12/31 08:23:14;;;;;;;16.23;14.63;;;;;;;22.11;33.22;96333.50;6202850;28;104253;-71
2022/12/31 08:26:26;;;;;;;15.83;14.23;;;;;;;22.09;33.57;96338.31;6208594;28;103302;-70
2022/12/31 08:29:39;;;;;;;15.33;13.73;;;;;;;22.15;33.19;96339.06;6210071;28;103055;-70
2022/12/31 08:32:48;;;;;;;17.93;16.03;;;;;;;22.10;32.94;96337.22;6191303;28;104150;-69
2022/12/31 08:36:06;;;;;;;18.77;16.67;;;;;;;22.07;33.61;96337.00;6207638;28;102931;-71
2022/12/31 08:39:21;;;;;;;18.47;16.67;;;;;;;22.09;32.69;96335.66;6210066;28;102818;-70
2022/12/31 08:42:32;;;;;;;17.60;15.90;;;;;;;22.02;33.05;96327.16;6210773;28;105812;-70
2022/12/31 08:45:39;;;;;;;21.30;19.40;;;;;;;22.01;32.95;96341.56;6177784;28;103606;-69
2022/12/31 08:48:43;;;;;;;20.30;18.40;;;;;;;21.82;32.72;96324.56;6203850;28;103393;-70
2022/12/31 08:51:47;;;;;;;18.80;17.10;;;;;;;21.91;32.65;96330.13;6209197;28;103277;-69
2022/12/31 08:54:50;;;;;;;20.33;18.53;;;;;;;21.89;32.77;96311.75;6202831;28;103096;-70
2022/12/31 08:58:07;;;;;;;20.30;18.53;;;;;;;21.98;32.77;96330.63;6206729;28;104760;-69
2022/12/31 09:01:17;;;;;;;17.97;16.47;;;;;;;21.98;32.69;96322.63;6209968;28;103941;-69
2022/12/31 09:04:29;;;;;;;18.77;17.13;;;;;;;22.00;33.15;96318.59;6210109;28;106144;-69
2022/12/31 09:07:39;;;;;;;17.20;15.60;;;;;;;22.04;32.57;96322.34;6197866;28;103078;-71
2022/12/31 09:10:51;;;;;;;17.30;15.67;;;;;;;22.04;33.17;96324.22;6209529;28;103106;-71
2022/12/31 09:14:20;;;;;;;17.93;16.33;;;;;;;22.07;33.08;96324.47;6207907;28;106317;-70
2022/12/31 09:17:42;;;;;;;18.43;16.63;;;;;;;22.11;33.65;96317.50;6203084;28;103130;-69
2022/12/31 09:20:46;;;;;;;18.13;16.40;;;;;;;22.23;33.84;96313.72;6179936;28;103306;-70
2022/12/31 09:23:49;;;;;;;17.80;16.03;;;;;;;22.22;34.91;96318.25;6205510;28;103164;-70
2022/12/31 09:27:04;;;;;;;17.30;15.70;;;;;;;22.24;34.58;96312.66;6184390;28;103070;-70
2022/12/31 09:30:11;;;;;;;19.17;17.47;;;;;;;22.28;34.81;96311.03;6198399;28;103438;-68
2022/12/31 09:33:30;;;;;;;18.00;16.30;;;;;;;22.29;34.92;96299.28;6208457;28;103116;-68
2022/12/31 09:36:39;;;;;;;18.87;17.07;;;;;;;22.29;35.29;96289.41;6209406;28;103121;-69
2022/12/31 09:39:45;;;;;;;21.03;19.10;;;;;;;22.25;34.79;96287.56;6209234;28;103238;-69
2022/12/31 09:43:09;;;;;;;21.47;19.50;;;;;;;22.27;34.92;96272.88;6195993;28;104309;-69
2022/12/31 09:47:04;;;;;;;23.07;21.07;;;;;;;22.26;34.25;96278.50;6209672;28;105811;-70
2022/12/31 09:50:49;;;;;;;24.13;21.73;;;;;;;22.26;34.59;96270.50;6195901;28;103279;-70
2022/12/31 09:54:24;;;;;;;27.20;24.70;;;;;;;22.27;34.02;96272.88;6167816;28;103337;-70
2022/12/31 09:57:38;;;;;;;26.27;23.83;;;;;;;22.28;33.79;96260.34;6187901;28;103041;-70
2022/12/31 10:00:48;;;;;;;28.17;25.50;;;;;;;22.23;33.79;96242.53;6203048;28;104881;-71
2022/12/31 10:04:29;;;;;;;30.10;27.20;;;;;;;22.31;33.64;96246.47;6198331;28;103102;-70
2022/12/31 10:07:46;;;;;;;32.23;29.10;;;;;;;22.31;34.12;96247.25;6203208;28;103532;-72
2022/12/31 10:10:59;;;;;;;33.00;29.80;;;;;;;22.05;33.96;96200.53;6207401;28;103509;-71
2022/12/31 10:14:28;;;;;;;32.30;29.10;;;;;;;22.33;33.80;96242.44;6197890;28;103362;-71
2022/12/31 10:17:47;;;;;;;30.47;27.57;;;;;;;22.33;33.64;96238.97;6192948;28;104182;-71
2022/12/31 10:21:03;;;;;;;31.77;28.60;;;;;;;22.33;33.76;96230.97;6207273;28;103297;-70
2022/12/31 10:24:34;;;;;;;34.60;31.10;;;;;;;22.32;33.64;96234.72;6204354;28;102898;-70
2022/12/31 10:27:51;;;;;;;37.80;33.93;;;;;;;22.24;33.78;96220.13;6190334;28;103200;-70
2022/12/31 10:31:06;;;;;;;44.67;40.47;;;;;;;22.33;33.63;96226.44;6208006;28;103357;-69
2022/12/31 10:34:16;;;;;;;52.87;47.67;;;;;;;22.35;33.58;96223.53;6208178;28;106322;-69
2022/12/31 10:37:22;;;;;;;61.20;55.00;;;;;;;22.35;34.13;96220.84;6198583;28;102793;-70
2022/12/31 10:40:44;;;;;;;60.57;54.73;;;;;;;22.39;33.56;96219.22;6196387;28;103222;-70
2022/12/31 10:44:21;;;;;;;54.87;49.67;;;;;;;22.40;34.03;96215.47;6207914;28;103214;-70
2022/12/31 10:47:55;;;;;;;53.87;48.93;;;;;;;22.41;34.28;96206.41;6202107;28;103137;-69
2022/12/31 10:51:29;;;;;;;54.17;49.10;;;;;;;22.42;33.96;96205.31;6175689;28;103175;-70
2022/12/31 10:54:58;;;;;;;51.83;46.83;;;;;;;22.38;34.65;96204.28;6202810;28;103434;-70
2022/12/31 10:58:45;;;;;;;50.87;46.10;;;;;;;22.45;34.04;96210.09;6205576;28;103244;-70
2022/12/31 11:02:01;;;;;;;48.20;43.70;;;;;;;22.43;34.44;96201.56;6194412;28;102808;-70
2022/12/31 11:05:43;;;;;;;46.93;42.67;;;;;;;22.41;35.07;96203.72;6182196;28;103656;-70
2022/12/31 11:09:39;;;;;;;45.70;41.43;;;;;;;22.41;35.07;96206.41;6159163;28;103050;-70
2022/12/31 11:13:10;;;;;;;45.23;40.83;;;;;;;22.42;34.80;96205.31;6178695;28;103058;-70
2022/12/31 11:16:31;;;;;;;41.80;37.97;;;;;;;22.48;35.43;96214.84;6206912;28;103111;-70
2022/12/31 11:19:44;;;;;;;42.43;38.57;;;;;;;22.51;35.65;96194.81;6199645;28;103106;-70
2022/12/31 11:22:58;;;;;;;41.50;37.57;;;;;;;22.50;36.06;96199.38;6203652;28;103827;-69
2022/12/31 11:26:13;;;;;;;41.17;37.40;;;;;;;22.48;36.08;96190.84;6198869;28;103249;-70
2022/12/31 11:29:36;;;;;;;42.60;38.60;;;;;;;22.50;35.57;96193.25;6210847;28;103388;-70
2022/12/31 11:33:00;;;;;;;40.73;36.87;;;;;;;22.47;36.24;96183.13;6208915;28;103565;-70
2022/12/31 11:36:16;;;;;;;37.63;34.13;;;;;;;22.44;35.91;96187.16;6196830;28;103761;-70
2022/12/31 11:39:35;;;;;;;39.80;35.93;;;;;;;22.40;36.56;96175.47;6211057;28;103097;-70
2022/12/31 11:42:46;;;;;;;39.80;35.67;;;;;;;22.38;35.94;96173.09;6211458;28;102988;-69
2022/12/31 11:46:13;;;;;;;38.67;34.80;;;;;;;22.34;36.27;96177.34;6210091;28;103518;-70
2022/12/31 11:49:33;;;;;;;40.00;35.80;;;;;;;22.30;35.91;96171.00;6200269;28;103092;-70
2022/12/31 11:52:52;;;;;;;40.80;36.50;;;;;;;22.27;36.43;96165.44;6208243;28;104154;-70
2022/12/31 11:56:09;;;;;;;38.67;34.47;;;;;;;22.23;36.20;96164.41;6210155;28;103805;-70
2022/12/31 11:59:14;;;;;;;36.47;32.57;;;;;;;22.23;36.14;96159.06;6199323;28;103573;-70
2022/12/31 12:02:26;;;;;;;37.87;33.77;;;;;;;22.21;36.32;96166.56;6208496;28;103313;-71
2022/12/31 12:05:31;;;;;;;35.07;31.13;;;;;;;22.11;36.08;96157.56;6208971;28;103196;-70
2022/12/31 12:08:35;;;;;;;34.20;30.60;;;;;;;22.18;35.82;96167.91;6207947;28;103053;-70
2022/12/31 12:11:39;;;;;;;33.63;30.23;;;;;;;22.17;35.77;96168.97;6200249;28;103909;-70
2022/12/31 12:14:45;;;;;;;32.10;28.53;;;;;;;22.18;36.07;96183.09;6205898;28;103522;-70
2022/12/31 12:17:54;;;;;;;30.97;27.67;;;;;;;22.22;36.29;96184.94;6202765;28;103149;-70
2022/12/31 12:21:10;;;;;;;32.13;27.60;;;;;;;22.27;36.47;96184.91;6193616;28;103282;-70
2022/12/31 12:24:20;;;;;;;32.47;26.47;;;;;;;22.29;36.72;96187.28;6207721;28;103116;-69
2022/12/31 12:27:30;;;;;;;29.47;25.57;;;;;;;22.34;36.45;96180.03;6196112;28;103525;-71
2022/12/31 12:30:40;;;;;;;31.33;24.63;;;;;;;22.38;37.16;96175.75;6209414;28;103164;-72
2022/12/31 12:33:46;;;;;;;27.47;24.33;;;;;;;22.40;37.35;96186.13;6197087;28;103075;-71
2022/12/31 12:36:50;;;;;;;26.80;24.00;;;;;;;22.42;37.41;96186.66;6199012;28;103177;-70
2022/12/31 12:39:59;;;;;;;24.37;21.77;;;;;;;22.43;37.49;96190.91;6209193;28;102781;-77
2022/12/31 12:43:03;;;;;;;25.73;23.03;;;;;;;22.44;37.10;96192.50;6209393;28;103008;-70
2022/12/31 12:46:18;;;;;;;23.67;21.17;;;;;;;22.34;37.41;96181.91;6192408;28;102951;-70
2022/12/31 12:49:25;;;;;;;22.50;20.17;;;;;;;22.45;37.64;96196.75;6209368;28;103284;-70
2022/12/31 12:52:45;;;;;;;22.50;20.10;;;;;;;22.44;37.59;96192.50;6208331;28;103093;-70
2022/12/31 12:55:59;;;;;;;22.67;20.47;;;;;;;22.44;37.50;96187.16;6192537;28;103363;-70
2022/12/31 12:59:26;;;;;;;22.37;20.10;;;;;;;22.40;37.39;96178.94;6208545;28;103288;-72
2022/12/31 13:03:19;;;;;;;22.87;20.47;;;;;;;22.46;37.70;96194.88;6208974;28;102944;-71
2022/12/31 13:06:36;;;;;;;22.47;20.27;;;;;;;22.44;38.17;96186.38;6202718;28;103375;-70
2022/12/31 13:09:55;;;;;;;21.30;19.20;;;;;;;22.42;37.92;96189.31;6203073;28;103260;-71
2022/12/31 13:13:05;;;;;;;21.33;19.00;;;;;;;22.41;38.09;96199.19;6210012;28;103251;-71
2022/12/31 13:16:34;;;;;;;20.20;18.20;;;;;;;22.41;38.34;96204.53;6204431;28;103602;-70
2022/12/31 13:19:45;;;;;;;19.77;17.70;;;;;;;22.37;37.87;96203.50;6198368;28;104046;-70
2022/12/31 13:22:56;;;;;;;19.93;18.03;;;;;;;22.38;38.37;96214.97;6208558;28;103055;-70
2022/12/31 13:26:07;;;;;;;18.10;16.43;;;;;;;22.39;38.31;96212.00;6190926;28;103743;-71
2022/12/31 13:29:17;;;;;;;19.20;17.20;;;;;;;22.39;38.06;96216.53;6208597;28;102926;-70
2022/12/31 13:32:24;;;;;;;17.10;15.60;;;;;;;22.36;38.77;96212.56;6196556;28;103337;-71
2022/12/31 13:35:31;;;;;;;17.20;15.50;;;;;;;22.41;38.68;96219.72;6197954;28;103119;-70
2022/12/31 13:38:38;;;;;;;16.03;14.63;;;;;;;22.32;38.53;96200.06;6208834;28;103430;-71
2022/12/31 13:41:49;;;;;;;15.80;14.43;;;;;;;22.40;38.64;96218.94;6185520;28;103848;-71
2022/12/31 13:44:59;;;;;;;17.03;15.43;;;;;;;22.39;38.49;96219.22;6201021;28;104037;-71
2022/12/31 13:48:07;;;;;;;17.03;15.33;;;;;;;22.36;38.73;96217.09;6193617;28;104338;-70
2022/12/31 13:51:15;;;;;;;16.00;14.50;;;;;;;22.34;38.69;96219.22;6207923;28;103184;-71
2022/12/31 13:54:30;;;;;;;16.13;14.63;;;;;;;22.30;38.90;96223.53;6195581;28;103558;-71
2022/12/31 13:57:43;;;;;;;15.30;14.00;;;;;;;22.28;38.73;96226.47;6207090;28;103841;-70
2022/12/31 14:00:53;;;;;;;14.37;12.97;;;;;;;22.27;39.01;96218.75;6207345;28;103258;-71
2022/12/31 14:04:04;;;;;;;14.40;13.10;;;;;;;22.26;38.42;96217.97;6199009;28;103081;-71
2022/12/31 14:07:13;;;;;;;15.23;13.73;;;;;;;22.26;38.82;96225.16;6195193;28;103381;-71
2022/12/31 14:10:20;;;;;;;14.00;12.67;;;;;;;22.17;38.19;96211.63;6207668;28;103375;-71
2022/12/31 14:13:37;;;;;;;14.40;13.20;;;;;;;22.23;38.30;96218.53;6195322;28;103236;-71
2022/12/31 14:16:48;;;;;;;14.40;12.90;;;;;;;22.28;38.25;96226.47;6188407;28;104910;-71
2022/12/31 14:20:02;;;;;;;14.07;12.67;;;;;;;22.24;38.82;96220.13;6186020;28;103023;-70
2022/12/31 14:23:18;;;;;;;13.23;12.13;;;;;;;22.27;38.87;96224.09;6200433;28;103239;-70
2022/12/31 14:26:26;;;;;;;13.57;12.27;;;;;;;22.13;38.40;96207.13;6193436;28;103132;-70
2022/12/31 14:29:35;;;;;;;14.40;13.10;;;;;;;22.28;38.74;96218.47;6199210;28;103010;-70
2022/12/31 14:33:09;;;;;;;13.33;12.13;;;;;;;22.21;38.69;96209.22;6215696;28;103258;-70
2022/12/31 14:36:26;;;;;;;13.13;12.03;;;;;;;22.14;38.39;96206.06;6203405;28;105994;-70
2022/12/31 14:39:43;;;;;;;14.37;12.97;;;;;;;22.08;38.76;96206.09;6199051;28;103345;-70
2022/12/31 14:43:04;;;;;;;13.93;12.73;;;;;;;22.09;38.28;96209.56;6213130;28;103984;-70